»·PEaware :: N416JK KNYL-KOLS

N416JK :: KNYL-KOLS

FLIGHT INFORMATION

Flight Status: Arrived
Operator: Privately registered:
United States
More flights under this callsign
Pilot: John K. (4202)
Aircraft: Unknown
(EPIC)
More flights by this aircraft type
Origin: KNYL Yuma MCAS/Yuma Intl
United States
Destination: KOLS Nogales Intl
United States
More flights between these airports :: More routes between these airports
Route: +BZA JUDTH V66 TUS V393 OLS
File this flight plan on PilotEdge
Remarks:
Altitude:
(Current/Filed)
13,000ft
Speed:
(Current/Filed)
240kts
Departed: 16-Oct-20 08:51 AM
Arrived: 16-Oct-20 09:50 AM
Distance/Time
Traveled:
205nm/0:59
Distance/Time
To Go:
Arrived

Flight Plot

Page will automatically refresh every two minutes.

Flight plan parsing failed; only flown route is shown


Map Options




Map Legend


Flown Route
Filed Route
Departure Airport
Arrival Airport
Navaid (VOR, NDB)
Fix

Horizontal Profiles

Position Reports

Time Latitude Longitude Heading Altitude Ground
Speed
16-Oct-20 08:21 32.660820 -114.609694 87 188ft 0kts
16-Oct-20 08:22 32.660820 -114.609694 87 188ft 0kts
16-Oct-20 08:23 32.660820 -114.609694 87 188ft 0kts
16-Oct-20 08:24 32.660820 -114.609694 87 188ft 0kts
16-Oct-20 08:25 32.660820 -114.609694 87 188ft 0kts
16-Oct-20 08:29 32.660820 -114.609693 87 188ft 0kts
16-Oct-20 08:30 32.660820 -114.609693 87 188ft 0kts
16-Oct-20 08:31 32.660820 -114.609693 87 188ft 0kts
16-Oct-20 08:32 32.660820 -114.609694 87 188ft 0kts
16-Oct-20 08:33 32.660820 -114.609694 87 188ft 0kts
16-Oct-20 08:34 32.660820 -114.609694 87 188ft 0kts
16-Oct-20 08:35 32.660820 -114.609694 87 188ft 0kts
16-Oct-20 08:36 32.660820 -114.609694 87 188ft 0kts
16-Oct-20 08:37 32.660820 -114.609694 87 188ft 0kts
16-Oct-20 08:38 32.660820 -114.609694 87 188ft 0kts
16-Oct-20 08:39 32.660820 -114.609694 87 188ft 0kts
16-Oct-20 08:40 32.660820 -114.609694 87 188ft 0kts
16-Oct-20 08:41 32.660820 -114.609694 87 188ft 0kts
16-Oct-20 08:42 32.661955 -114.606774 97 191ft 0kts
16-Oct-20 08:43 32.666659 -114.605612 358 194ft 0kts
16-Oct-20 08:44 32.666659 -114.605612 358 194ft 0kts
16-Oct-20 08:45 32.667255 -114.603031 84 195ft 28kts
16-Oct-20 08:46 32.667391 -114.593471 88 207ft 27kts
16-Oct-20 08:47 32.667405 -114.589198 89 210ft 0kts
16-Oct-20 08:48 32.667462 -114.586735 89 214ft 20kts
16-Oct-20 08:49 32.666147 -114.586979 270 214ft 0kts
16-Oct-20 08:50 32.665439 -114.623500 270 1085ft 151kts
16-Oct-20 08:51 32.663513 -114.677288 270 2198ft 171kts
16-Oct-20 08:52 32.662164 -114.743531 270 3254ft 227kts
16-Oct-20 08:53 32.661135 -114.822005 270 4728ft 239kts
16-Oct-20 08:54 32.664576 -114.900192 306 7414ft 237kts
16-Oct-20 08:55 32.712794 -114.883413 76 10103ft 220kts
16-Oct-20 08:56 32.726542 -114.814841 76 12787ft 209kts
16-Oct-20 08:57 32.742521 -114.733651 76 13002ft 282kts
16-Oct-20 08:58 32.760890 -114.640257 76 13000ft 297kts
16-Oct-20 08:59 32.774189 -114.542979 90 12999ft 301kts
16-Oct-20 09:00 32.777205 -114.443216 86 12999ft 302kts
16-Oct-20 09:01 32.782513 -114.343628 86 12999ft 303kts
16-Oct-20 09:03 32.787903 -114.243845 86 13000ft 303kts
16-Oct-20 09:04 32.793253 -114.143440 86 13000ft 304kts
16-Oct-20 09:05 32.798546 -114.042577 86 13001ft 305kts
16-Oct-20 09:06 32.803253 -113.951600 86 12999ft 305kts
16-Oct-20 09:07 32.808371 -113.851174 86 12999ft 305kts
16-Oct-20 09:08 32.813414 -113.750616 86 12999ft 305kts
16-Oct-20 09:09 32.821840 -113.650157 79 12999ft 305kts
16-Oct-20 09:10 32.836030 -113.550428 79 12999ft 306kts
16-Oct-20 09:11 32.850163 -113.449874 79 13008ft 311kts
16-Oct-20 09:12 32.864390 -113.347982 80 13008ft 313kts
16-Oct-20 09:13 32.878644 -113.245328 80 13008ft 314kts
16-Oct-20 09:14 32.892775 -113.142937 80 13008ft 314kts
16-Oct-20 09:15 32.906905 -113.039898 80 13008ft 315kts
16-Oct-20 09:16 32.920908 -112.937133 80 13008ft 315kts
16-Oct-20 09:17 32.934649 -112.835656 80 13008ft 315kts
16-Oct-20 09:18 32.948661 -112.731570 80 13008ft 315kts
16-Oct-20 09:19 32.936688 -112.632645 119 13010ft 317kts
16-Oct-20 09:20 32.892749 -112.541518 119 13008ft 317kts
16-Oct-20 09:20 32.856123 -112.465357 119 12945ft 319kts
16-Oct-20 09:22 32.804868 -112.358887 119 12944ft 318kts
16-Oct-20 09:22 32.768164 -112.282812 119 12944ft 318kts
16-Oct-20 09:24 32.716977 -112.176911 119 13035ft 315kts
16-Oct-20 09:24 32.680516 -112.101698 119 13036ft 316kts
16-Oct-20 09:25 32.636667 -112.011479 119 13036ft 315kts
16-Oct-20 09:26 32.592844 -111.921535 119 13005ft 316kts
16-Oct-20 09:27 32.548874 -111.831512 119 12999ft 315kts
16-Oct-20 09:28 32.504981 -111.741851 119 13001ft 314kts
16-Oct-20 09:29 32.460947 -111.652164 119 13008ft 315kts
16-Oct-20 09:30 32.416699 -111.562210 119 12954ft 317kts
16-Oct-20 09:31 32.371731 -111.472889 121 12953ft 316kts
16-Oct-20 09:32 32.324733 -111.384827 118 12951ft 316kts
16-Oct-20 09:33 32.281993 -111.294445 119 12954ft 316kts
16-Oct-20 09:34 32.238956 -111.203813 119 12985ft 315kts
16-Oct-20 09:35 32.196958 -111.118670 120 12999ft 315kts
16-Oct-20 09:36 32.152639 -111.029822 120 12999ft 315kts
16-Oct-20 09:37 32.108152 -110.940840 120 12999ft 315kts
16-Oct-20 09:38 32.029988 -110.908306 174 12999ft 317kts
16-Oct-20 09:39 31.946626 -110.900327 174 12998ft 288kts
16-Oct-20 09:40 31.866568 -110.892532 174 11943ft 294kts
16-Oct-20 09:41 31.789320 -110.885023 173 10634ft 250kts
16-Oct-20 09:42 31.727479 -110.879028 173 10663ft 201kts
16-Oct-20 09:43 31.674767 -110.873899 173 10287ft 201kts
16-Oct-20 09:44 31.610421 -110.867662 173 8107ft 252kts
16-Oct-20 09:45 31.542446 -110.861101 173 5904ft 240kts
16-Oct-20 09:46 31.483574 -110.848375 146 5183ft 170kts
16-Oct-20 09:47 31.451593 -110.829657 153 4759ft 126kts
16-Oct-20 09:48 31.425581 -110.838266 225 4060ft 127kts
16-Oct-20 09:49 31.416738 -110.850782 321 3880ft 12kts
16-Oct-20 09:50 31.418035 -110.850161 48 3885ft 0kts
16-Oct-20 09:51 31.418034 -110.850161 48 3885ft 0kts

Navigation Log

Ident Type
Flight plan parsing failed, navigation log unavailable